Terminal Aerodrome Forecast
Issued by NWS Pueblo, CO

Home | Current Version | Previous Version | Text Only | Print | Product List | Glossary On
Versions: 1 2 3 4 5 6 7 8 9 10 11 12 13 14 15 16 17 18 19 20 21 22 23 24 25 26 27 28 29 30 31 32 33 34 35 36 37 38 39 40
000
FTUS45 KPUB 281454 AAA
TAFCOS
TAF AMD
KCOS 281454Z 2815/0112 35007KT P6SM VCSH BKN050
     FM281700 16012KT P6SM VCSH BKN050
     FM282200 33018G28KT P6SM VCSH SCT090 BKN140
     FM010300 35012KT P6SM FEW140 SCT250=

USA.gov is the U.S. government's official web portal to all federal, state and local government web resources and services.